Billings (BIL/KBIL)

Map

Information

Location
Billings, MT
Local Time
18:13 / 6:13 pm
GMT Time
00:13 / 12:13 am
Gates
B1
No FAA reported delays
METAR KBIL 252353Z VRB03KT 10SM OVC019 03/M02 A2987 RMK AO2 SLP134 T00331017 10039 20000 56004
TAF KBIL 252339Z 2600/2624 01003KT P6SM BKN020 FM260300 14005KT P6SM SCT020 BKN035 FM260600 21006KT P6SM VCFG SCT005 FM261600 15005KT P6SM SCT080